createdAt,value
2022-09-28T00:01:24.179Z,5.56
2022-09-28T00:03:52.281Z,6.10
2022-09-28T00:06:20.516Z,4.82
2022-09-28T00:08:47.220Z,4.67
2022-09-28T00:11:15.437Z,6.29
2022-09-28T00:13:42.931Z,6.15
2022-09-28T00:16:14.145Z,6.08
2022-09-28T00:18:41.194Z,6.20
2022-09-28T00:21:12.949Z,5.68
2022-09-28T00:23:59.804Z,5.80
2022-09-28T00:26:27.615Z,4.26
2022-09-28T00:28:55.015Z,4.30
2022-09-28T00:31:22.195Z,4.94
2022-09-28T00:33:57.690Z,4.85
2022-09-28T00:36:24.757Z,6.39
2022-09-28T00:38:52.325Z,6.26
2022-09-28T00:41:18.985Z,6.41
2022-09-28T00:43:45.637Z,4.86
2022-09-28T00:49:59.125Z,6.22
2022-09-28T00:52:30.275Z,5.42
2022-09-28T00:54:57.496Z,5.10
2022-09-28T00:57:24.116Z,5.54
2022-09-28T00:59:50.835Z,3.60
2022-09-28T01:02:17.532Z,5.14
2022-09-28T01:04:44.138Z,6.02
2022-09-28T01:07:10.724Z,5.38
2022-09-28T01:09:38.782Z,4.93
2022-09-28T01:12:05.758Z,6.07
2022-09-28T01:14:32.327Z,4.76
2022-09-28T01:17:11.798Z,6.17
2022-09-28T01:20:34.316Z,6.21
2022-09-28T01:23:24.322Z,6.23
2022-09-28T01:26:12.604Z,6.30
2022-09-28T01:28:39.274Z,5.66
2022-09-28T01:31:09.782Z,5.70
2022-09-28T01:34:10.355Z,5.82
2022-09-28T01:36:46.486Z,5.79
2022-09-28T01:39:34.752Z,5.39
2022-09-28T01:42:08.285Z,5.01
2022-09-28T01:44:47.578Z,6.05
2022-09-28T01:47:15.280Z,6.03
2022-09-28T01:49:46.288Z,5.13
2022-09-28T01:52:20.935Z,5.43
2022-09-28T01:54:53.648Z,5.37
2022-09-28T01:57:24.829Z,7.11
2022-09-28T02:00:21.271Z,7.17
2022-09-28T02:03:17.564Z,6.90
2022-09-28T02:05:48.727Z,6.41
2022-09-28T02:08:28.525Z,6.18
2022-09-28T02:11:00.739Z,7.31
2022-09-28T02:13:30.327Z,5.70
2022-09-28T02:16:09.036Z,7.39
2022-09-28T02:18:35.708Z,6.84
2022-09-28T02:21:15.349Z,6.50
2022-09-28T02:23:51.325Z,7.04
2022-09-28T02:26:17.904Z,6.03
2022-09-28T02:28:44.469Z,5.86
2022-09-28T02:31:11.075Z,7.46
2022-09-28T02:33:38.835Z,6.95
2022-09-28T02:36:05.542Z,5.60
2022-09-28T02:38:32.242Z,6.90
2022-09-28T02:41:17.022Z,7.61
2022-09-28T02:43:43.501Z,7.62
2022-09-28T02:46:22.291Z,7.61
2022-09-28T02:49:21.002Z,7.60
2022-09-28T02:51:54.351Z,7.58
2022-09-28T02:54:28.428Z,7.45
2022-09-28T02:57:33.068Z,6.53
2022-09-28T03:00:08.053Z,7.37
2022-09-28T03:02:34.476Z,7.48
2022-09-28T03:05:14.680Z,7.47
2022-09-28T03:08:00.253Z,7.46
2022-09-28T03:10:41.026Z,7.45
2022-09-28T03:13:07.662Z,6.88
2022-09-28T03:15:35.558Z,7.26
2022-09-28T03:18:02.266Z,6.94
2022-09-28T03:20:29.647Z,6.12
2022-09-28T03:23:22.820Z,7.38
2022-09-28T03:25:42.887Z,6.72
2022-09-28T03:28:09.461Z,7.37
2022-09-28T03:30:36.040Z,7.06
2022-09-28T03:33:03.272Z,7.08
2022-09-28T03:35:29.984Z,6.68
2022-09-28T03:37:56.828Z,5.78
2022-09-28T03:40:23.581Z,7.10
2022-09-28T03:42:50.252Z,6.37
2022-09-28T03:45:16.918Z,6.19
2022-09-28T03:47:47.083Z,5.37
2022-09-28T03:50:13.860Z,6.67
2022-09-28T03:52:40.469Z,6.18
2022-09-28T03:55:07.428Z,5.65
2022-09-28T03:57:34.023Z,5.92
2022-09-28T04:00:00.940Z,7.12
2022-09-28T04:02:27.595Z,6.03
2022-09-28T04:04:54.315Z,5.63
2022-09-28T04:07:20.965Z,5.47
2022-09-28T04:09:47.591Z,6.61
2022-09-28T04:12:14.186Z,5.43
2022-09-28T04:14:40.782Z,5.97
2022-09-28T04:17:07.417Z,6.67
2022-09-28T04:19:34.059Z,6.40
2022-09-28T04:22:01.999Z,7.00
2022-09-28T04:24:28.735Z,6.34
2022-09-28T04:27:18.088Z,5.65
2022-09-28T04:29:44.804Z,7.04
2022-09-28T04:32:12.062Z,4.92
2022-09-28T04:34:43.173Z,5.04
2022-09-28T04:37:10.662Z,5.45
2022-09-28T04:39:37.302Z,5.05
2022-09-28T04:42:03.927Z,5.82
2022-09-28T04:44:30.600Z,6.02
2022-09-28T04:46:59.655Z,6.18
2022-09-28T04:49:28.301Z,5.95
2022-09-28T04:51:54.956Z,4.80
2022-09-28T04:54:21.538Z,6.22
2022-09-28T04:56:48.133Z,6.41
2022-09-28T04:59:14.840Z,6.63
2022-09-28T05:01:41.716Z,5.42
2022-09-28T05:04:08.269Z,5.14
2022-09-28T05:06:34.906Z,6.37
2022-09-28T05:09:01.603Z,6.45
2022-09-28T05:11:28.227Z,6.31
2022-09-28T05:13:55.167Z,5.80
2022-09-28T05:16:21.824Z,5.91
2022-09-28T05:18:48.504Z,5.97
2022-09-28T05:21:15.589Z,5.98
2022-09-28T05:23:46.221Z,5.71
2022-09-28T05:26:12.874Z,4.85
2022-09-28T05:28:39.557Z,6.64
2022-09-28T05:31:06.278Z,6.89
2022-09-28T05:33:33.098Z,6.22
2022-09-28T05:36:01.492Z,5.95
2022-09-28T05:38:28.721Z,6.06
2022-09-28T05:40:55.395Z,5.94
2022-09-28T05:43:22.133Z,5.69
2022-09-28T05:45:53.026Z,6.02
2022-09-28T05:48:21.818Z,5.33
2022-09-28T05:50:52.516Z,5.99
2022-09-28T05:53:19.260Z,5.96
2022-09-28T05:55:45.887Z,6.28
2022-09-28T05:58:12.442Z,5.99
2022-09-28T06:00:38.996Z,6.66
2022-09-28T06:03:09.106Z,6.07
2022-09-28T06:05:36.353Z,6.87
2022-09-28T06:08:04.401Z,5.36
2022-09-28T06:10:31.257Z,6.44
2022-09-28T06:12:58.507Z,6.20
2022-09-28T06:15:30.318Z,6.43
2022-09-28T06:18:06.935Z,6.41
2022-09-28T06:20:35.723Z,6.43
2022-09-28T06:23:02.435Z,5.96
2022-09-28T06:25:29.100Z,6.49
2022-09-28T06:28:12.227Z,6.94
2022-09-28T06:30:39.249Z,6.65
2022-09-28T06:33:06.922Z,6.35
2022-09-28T06:35:33.840Z,5.37
2022-09-28T06:38:00.688Z,5.77
2022-09-28T06:40:27.393Z,5.35
2022-09-28T06:43:01.651Z,6.89
2022-09-28T06:45:29.099Z,7.05
2022-09-28T06:47:56.766Z,7.68
2022-09-28T06:50:27.034Z,6.84
2022-09-28T06:52:54.176Z,6.99
2022-09-28T06:55:21.439Z,6.39
2022-09-28T06:57:48.211Z,7.39
2022-09-28T07:00:16.544Z,8.18
2022-09-28T07:02:43.189Z,6.88
2022-09-28T07:05:12.445Z,8.55
2022-09-28T07:07:40.424Z,8.36
2022-09-28T07:10:08.423Z,8.06
2022-09-28T07:12:35.894Z,8.56
2022-09-28T07:15:02.564Z,8.49
2022-09-28T07:17:29.367Z,8.64
2022-09-28T07:20:00.256Z,8.58
2022-09-28T07:22:40.608Z,8.73
2022-09-28T07:25:09.966Z,8.94
2022-09-28T07:27:39.595Z,9.16
2022-09-28T07:30:06.858Z,8.75
2022-09-28T07:32:37.478Z,9.53
2022-09-28T07:35:09.270Z,9.69
2022-09-28T07:37:36.121Z,9.92
2022-09-28T07:40:25.651Z,10.60
2022-09-28T07:42:52.346Z,11.16
2022-09-28T07:45:20.784Z,11.34
2022-09-28T07:47:47.414Z,12.30
2022-09-28T07:50:13.975Z,13.17
2022-09-28T07:52:40.650Z,14.60
2022-09-28T07:55:07.859Z,16.37
2022-09-28T07:57:35.423Z,17.16
2022-09-28T08:00:02.502Z,19.82
2022-09-28T08:02:32.479Z,21.13
2022-09-28T08:04:59.783Z,22.09
2022-09-28T08:07:26.391Z,22.60
2022-09-28T08:09:52.948Z,23.09
2022-09-28T08:12:19.862Z,22.64
2022-09-28T08:14:46.868Z,21.93
2022-09-28T08:17:13.614Z,21.06
2022-09-28T08:19:58.960Z,20.08
2022-09-28T08:22:25.579Z,19.19
2022-09-28T08:24:52.156Z,18.01
2022-09-28T08:27:18.713Z,18.07
2022-09-28T08:29:45.360Z,17.54
2022-09-28T08:32:11.910Z,16.56
2022-09-28T08:34:39.724Z,16.16
2022-09-28T08:39:57.733Z,15.40
2022-09-28T08:42:35.466Z,15.05
2022-09-28T08:45:07.956Z,14.60
2022-09-28T08:48:25.355Z,14.48
2022-09-28T08:50:54.786Z,14.26
2022-09-28T08:53:33.165Z,14.35
2022-09-28T08:55:59.982Z,13.78
2022-09-28T08:58:28.404Z,13.56
2022-09-28T09:00:54.974Z,13.70
2022-09-28T09:03:26.933Z,13.27
2022-09-28T09:06:06.086Z,13.48
2022-09-28T09:08:39.710Z,12.20
2022-09-28T09:11:22.082Z,13.32
2022-09-28T09:14:03.856Z,13.28
2022-09-28T09:16:49.385Z,13.25
2022-09-28T09:19:36.287Z,13.27
2022-09-28T09:22:16.265Z,12.91
2022-09-28T09:24:50.399Z,13.37
2022-09-28T09:27:30.527Z,13.50
2022-09-28T09:30:09.623Z,13.30
2022-09-28T09:32:43.628Z,13.00
2022-09-28T09:35:40.683Z,13.85
2022-09-28T09:38:09.796Z,13.80
2022-09-28T09:40:43.308Z,13.70
2022-09-28T09:43:32.012Z,13.58
2022-09-28T09:46:10.802Z,13.56
2022-09-28T09:48:43.264Z,13.60
2022-09-28T09:51:32.964Z,13.78
2022-09-28T09:54:02.072Z,13.12
2022-09-28T09:56:40.893Z,13.38
2022-09-28T09:59:10.146Z,13.99
2022-09-28T10:01:38.982Z,14.26
2022-09-28T10:04:08.498Z,13.73
2022-09-28T10:06:35.553Z,14.12
2022-09-28T10:09:10.327Z,13.81
2022-09-28T10:11:39.696Z,13.77
2022-09-28T10:14:12.010Z,14.11
2022-09-28T10:16:38.672Z,12.74
2022-09-28T10:19:05.344Z,13.28
2022-09-28T10:21:32.574Z,12.74
2022-09-28T10:23:59.668Z,13.10
2022-09-28T10:26:47.052Z,14.48
2022-09-28T10:29:20.258Z,14.38
2022-09-28T10:31:50.791Z,14.06
2022-09-28T10:34:19.664Z,14.34
2022-09-28T10:37:07.085Z,14.24
2022-09-28T10:39:45.639Z,14.94
2022-09-28T10:42:13.247Z,14.71
2022-09-28T10:44:53.450Z,15.16
2022-09-28T10:47:20.914Z,14.88
2022-09-28T10:49:48.843Z,14.87
2022-09-28T10:52:35.284Z,14.91
2022-09-28T10:55:21.812Z,15.31
2022-09-28T10:57:48.504Z,14.89
2022-09-28T11:00:33.813Z,15.33
2022-09-28T11:03:00.941Z,15.55
2022-09-28T11:05:28.055Z,14.67
2022-09-28T11:07:55.949Z,14.21
2022-09-28T11:10:26.143Z,15.46
2022-09-28T11:12:52.939Z,14.96
2022-09-28T11:15:21.411Z,14.65
2022-09-28T11:17:48.143Z,14.02
2022-09-28T11:20:30.623Z,14.65
2022-09-28T11:23:22.716Z,14.94
2022-09-28T11:26:05.750Z,14.74
2022-09-28T11:28:37.796Z,14.73
2022-09-28T11:31:07.281Z,14.71
2022-09-28T11:33:39.021Z,14.39
2022-09-28T11:36:14.662Z,14.97
2022-09-28T11:39:09.241Z,15.06
2022-09-28T11:42:02.018Z,15.16
2022-09-28T11:44:36.750Z,15.25
2022-09-28T11:47:15.422Z,15.15
2022-09-28T11:49:46.477Z,14.78
2022-09-28T11:52:33.236Z,15.06
2022-09-28T11:55:03.290Z,14.68
2022-09-28T11:57:32.713Z,14.14
2022-09-28T12:00:01.942Z,14.65
2022-09-28T12:02:36.589Z,15.01
2022-09-28T12:05:15.910Z,13.43
2022-09-28T12:07:47.747Z,13.68
2022-09-28T12:10:19.884Z,14.69
2022-09-28T12:13:31.466Z,14.80
2022-09-28T12:18:57.384Z,13.99
2022-09-28T12:21:44.060Z,14.67
2022-09-28T12:24:29.389Z,14.63
2022-09-28T12:27:04.950Z,14.56
2022-09-28T12:29:41.088Z,14.46
2022-09-28T12:32:28.438Z,14.00
2022-09-28T12:34:55.751Z,14.14
2022-09-28T12:37:42.547Z,14.31
2022-09-28T12:40:18.162Z,14.26
2022-09-28T12:43:06.396Z,14.23
2022-09-28T12:46:06.748Z,14.11
2022-09-28T12:48:52.973Z,14.14
2022-09-28T12:51:48.722Z,13.97
2022-09-28T12:54:39.032Z,13.94
2022-09-28T12:57:24.392Z,13.86
2022-09-28T13:00:04.805Z,13.82
2022-09-28T13:02:57.732Z,13.81
2022-09-28T13:05:30.243Z,13.77
2022-09-28T13:08:09.136Z,13.81
2022-09-28T13:10:43.888Z,13.84
2022-09-28T13:13:38.287Z,13.82
2022-09-28T13:16:26.763Z,13.82
2022-09-28T13:19:16.945Z,13.85
2022-09-28T13:21:52.844Z,13.96
2022-09-28T13:24:32.791Z,13.44
2022-09-28T13:27:22.658Z,13.98
2022-09-28T13:29:50.399Z,13.77
2022-09-28T13:32:17.421Z,13.34
2022-09-28T13:34:44.068Z,13.92
2022-09-28T13:37:41.537Z,13.26
2022-09-28T13:40:08.463Z,13.78
2022-09-28T13:42:47.653Z,13.70
2022-09-28T13:45:20.189Z,13.65
2022-09-28T13:48:05.353Z,13.62
2022-09-28T13:50:54.284Z,13.44
2022-09-28T13:53:46.887Z,13.58
2022-09-28T13:56:39.842Z,13.56
2022-09-28T13:59:18.388Z,13.57
2022-09-28T14:02:15.415Z,13.51
2022-09-28T14:05:00.310Z,13.11
2022-09-28T14:07:36.533Z,13.03
2022-09-28T14:10:23.663Z,13.39
2022-09-28T14:12:51.567Z,13.01
2022-09-28T14:15:30.780Z,13.44
2022-09-28T14:18:15.669Z,13.43
2022-09-28T14:21:02.751Z,13.41
2022-09-28T14:23:34.594Z,13.51
2022-09-28T14:26:48.268Z,13.53
2022-09-28T14:29:34.563Z,13.27
2022-09-28T14:32:05.785Z,13.17
2022-09-28T14:34:42.691Z,12.31
2022-09-28T14:37:38.486Z,13.41
2022-09-28T14:40:39.050Z,13.44
2022-09-28T14:43:24.480Z,13.33
2022-09-28T14:46:15.297Z,13.25
2022-09-28T14:49:10.041Z,13.19
2022-09-28T14:51:43.399Z,13.14
2022-09-28T14:54:12.832Z,13.15
2022-09-28T14:56:40.425Z,13.17
2022-09-28T14:59:07.467Z,12.85
2022-09-28T15:01:34.266Z,12.25
2022-09-28T15:04:04.661Z,12.79
2022-09-28T15:06:50.703Z,12.94
2022-09-28T15:09:29.782Z,12.50
2022-09-28T15:12:20.919Z,13.03
2022-09-28T15:15:04.582Z,12.56
2022-09-28T15:17:39.707Z,12.10
2022-09-28T15:20:12.804Z,12.99
2022-09-28T15:22:44.973Z,12.68
2022-09-28T15:25:19.984Z,12.72
2022-09-28T15:27:56.446Z,12.98
2022-09-28T15:30:23.330Z,12.91
2022-09-28T15:32:50.545Z,12.26
2022-09-28T15:35:25.621Z,12.56
2022-09-28T15:37:52.700Z,11.43
2022-09-28T15:40:21.202Z,12.39
2022-09-28T15:42:47.908Z,11.74
2022-09-28T15:45:14.439Z,12.75
2022-09-28T15:47:44.904Z,11.44
2022-09-28T15:50:28.382Z,12.56
2022-09-28T15:53:00.717Z,12.53
2022-09-28T15:55:37.896Z,11.73
2022-09-28T15:58:24.822Z,12.63
2022-09-28T16:01:12.219Z,12.06
2022-09-28T16:03:38.886Z,12.44
2022-09-28T16:06:07.579Z,12.42
2022-09-28T16:08:39.744Z,12.26
2022-09-28T16:11:20.001Z,12.70
2022-09-28T16:14:07.332Z,12.66
2022-09-28T16:16:42.174Z,12.47
2022-09-28T16:19:37.373Z,12.68
2022-09-28T16:22:06.436Z,12.04
2022-09-28T16:24:37.104Z,12.11
2022-09-28T16:27:06.437Z,12.44
2022-09-28T16:29:39.966Z,12.64
2022-09-28T16:32:38.434Z,12.07
2022-09-28T16:35:13.721Z,12.65
2022-09-28T16:37:42.741Z,11.78
2022-09-28T16:40:10.120Z,11.07
2022-09-28T16:42:36.753Z,12.10
2022-09-28T16:45:05.314Z,11.42
2022-09-28T16:47:35.240Z,12.01
2022-09-28T16:50:03.947Z,12.12
2022-09-28T16:52:49.058Z,12.34
2022-09-28T16:55:38.947Z,11.74
2022-09-28T16:58:04.935Z,12.50
2022-09-28T17:00:31.948Z,11.99
2022-09-28T17:02:58.638Z,12.38
2022-09-28T17:05:25.567Z,12.07
2022-09-28T17:08:00.794Z,12.47
2022-09-28T17:10:56.207Z,12.52
2022-09-28T17:13:31.429Z,12.31
2022-09-28T17:15:58.411Z,12.21
2022-09-28T17:18:25.049Z,11.95
2022-09-28T17:20:52.169Z,12.49
2022-09-28T17:25:45.998Z,12.49
2022-09-28T17:28:23.686Z,12.17
2022-09-28T17:30:50.473Z,12.54
2022-09-28T17:33:17.320Z,11.15
2022-09-28T17:35:44.082Z,12.60
2022-09-28T17:38:14.976Z,12.57
2022-09-28T17:40:42.611Z,12.73
2022-09-28T17:43:09.478Z,11.97
2022-09-28T17:45:39.083Z,11.00
2022-09-28T17:48:06.701Z,11.97
2022-09-28T17:50:34.281Z,10.87
2022-09-28T17:53:03.872Z,11.93
2022-09-28T17:55:31.940Z,10.63
2022-09-28T17:58:02.024Z,11.73
2022-09-28T18:00:28.776Z,12.39
2022-09-28T18:02:56.150Z,12.34
2022-09-28T18:05:24.974Z,12.30
2022-09-28T18:07:52.092Z,11.81
2022-09-28T18:10:21.456Z,12.04
2022-09-28T18:12:49.349Z,12.03
2022-09-28T18:15:16.450Z,11.80
2022-09-28T18:17:43.017Z,11.67
2022-09-28T18:20:10.207Z,11.95
2022-09-28T18:22:36.885Z,12.20
2022-09-28T18:25:04.218Z,11.77
2022-09-28T18:27:31.143Z,12.07
2022-09-28T18:29:57.866Z,12.00
2022-09-28T18:32:24.546Z,10.96
2022-09-28T18:34:51.230Z,11.61
2022-09-28T18:37:17.859Z,11.74
2022-09-28T18:39:45.195Z,11.68
2022-09-28T18:42:12.504Z,11.15
2022-09-28T18:44:39.071Z,11.91
2022-09-28T18:47:05.619Z,11.48
2022-09-28T18:49:33.624Z,12.05
2022-09-28T18:52:01.327Z,11.82
2022-09-28T18:54:27.952Z,11.57
2022-09-28T18:56:56.418Z,12.00
2022-09-28T18:59:23.451Z,11.55
2022-09-28T19:01:50.310Z,11.61
2022-09-28T19:04:17.071Z,11.09
2022-09-28T19:06:44.889Z,11.80
2022-09-28T19:09:11.745Z,11.74
2022-09-28T19:11:38.457Z,12.19
2022-09-28T19:14:05.081Z,11.82
2022-09-28T19:16:33.790Z,11.78
2022-09-28T19:19:02.860Z,11.82
2022-09-28T19:21:30.131Z,11.83
2022-09-28T19:23:56.774Z,11.68
2022-09-28T19:26:24.920Z,11.96
2022-09-28T19:28:51.517Z,12.13
2022-09-28T19:31:18.870Z,11.07
2022-09-28T19:33:46.550Z,11.53
2022-09-28T19:36:17.232Z,11.68
2022-09-28T19:38:44.104Z,10.68
2022-09-28T19:41:49.515Z,11.74
2022-09-28T19:44:27.563Z,10.35
2022-09-28T19:47:07.085Z,11.72
2022-09-28T19:49:36.988Z,11.56
2022-09-28T19:52:13.377Z,11.60
2022-09-28T19:55:00.343Z,11.55
2022-09-28T19:57:28.635Z,11.79
2022-09-28T20:00:00.808Z,11.85
2022-09-28T20:02:28.674Z,11.98
2022-09-28T20:04:55.507Z,11.66
2022-09-28T20:07:22.130Z,11.22
2022-09-28T20:09:48.799Z,11.43
2022-09-28T20:12:15.398Z,11.60
2022-09-28T20:14:41.986Z,11.66
2022-09-28T20:17:09.341Z,11.38
2022-09-28T20:19:36.124Z,11.44
2022-09-28T20:22:03.132Z,11.44
2022-09-28T20:24:31.366Z,11.43
2022-09-28T20:26:58.141Z,11.65
2022-09-28T20:29:24.939Z,11.96
2022-09-28T20:31:51.999Z,11.59
2022-09-28T20:34:18.670Z,11.58
2022-09-28T20:36:45.252Z,11.93
2022-09-28T20:39:12.030Z,11.61
2022-09-28T20:41:38.727Z,11.38
2022-09-28T20:44:06.339Z,11.63
2022-09-28T20:46:35.058Z,10.91
2022-09-28T20:49:01.935Z,11.67
2022-09-28T20:51:28.723Z,11.62
2022-09-28T20:53:56.593Z,11.63
2022-09-28T20:56:38.765Z,11.58
2022-09-28T20:59:07.451Z,11.54
2022-09-28T21:01:34.315Z,11.10
2022-09-28T21:04:01.991Z,11.32
2022-09-28T21:06:33.577Z,11.59
2022-09-28T21:09:00.251Z,10.34
2022-09-28T21:11:28.129Z,11.36
2022-09-28T21:13:55.814Z,11.02
2022-09-28T21:16:22.539Z,10.85
2022-09-28T21:18:49.158Z,10.60
2022-09-28T21:21:17.115Z,11.40
2022-09-28T21:23:46.525Z,11.34
2022-09-28T21:26:15.788Z,11.03
2022-09-28T21:28:42.451Z,11.25
2022-09-28T21:31:10.404Z,11.16
2022-09-28T21:33:37.286Z,10.73
2022-09-28T21:36:05.137Z,10.83
2022-09-28T21:38:31.750Z,10.33
2022-09-28T21:40:59.257Z,10.89
2022-09-28T21:43:27.400Z,11.09
2022-09-28T21:45:54.714Z,10.76
2022-09-28T21:48:21.823Z,10.59
2022-09-28T21:51:01.833Z,10.91
2022-09-28T21:53:29.951Z,10.53
2022-09-28T21:55:57.002Z,10.66
2022-09-28T21:58:24.941Z,10.82
2022-09-28T22:00:56.920Z,10.84
2022-09-28T22:03:25.807Z,10.62
2022-09-28T22:05:52.478Z,10.95
2022-09-28T22:08:19.718Z,11.04
2022-09-28T22:10:46.702Z,10.31
2022-09-28T22:13:13.272Z,11.13
2022-09-28T22:15:39.872Z,10.23
2022-09-28T22:18:06.468Z,10.45
2022-09-28T22:20:33.153Z,10.98
2022-09-28T22:22:59.776Z,10.26
2022-09-28T22:25:26.408Z,9.05
2022-09-28T22:27:53.205Z,10.39
2022-09-28T22:30:19.782Z,10.64
2022-09-28T22:32:46.380Z,9.92
2022-09-28T22:35:12.960Z,10.51
2022-09-28T22:37:39.525Z,10.28
2022-09-28T22:40:06.691Z,10.52
2022-09-28T22:42:33.232Z,10.50
2022-09-28T22:44:59.851Z,10.37
2022-09-28T22:47:26.469Z,10.39
2022-09-28T22:49:53.096Z,10.37
2022-09-28T22:52:19.668Z,10.17
2022-09-28T22:54:46.253Z,10.32
2022-09-28T22:57:13.103Z,10.25
2022-09-28T22:59:39.639Z,10.31
2022-09-28T23:02:06.450Z,9.75
2022-09-28T23:04:33.186Z,10.29
2022-09-28T23:06:59.920Z,9.84
2022-09-28T23:09:26.494Z,10.14
2022-09-28T23:11:53.059Z,10.07
2022-09-28T23:14:19.654Z,10.19
2022-09-28T23:16:46.226Z,9.99
2022-09-28T23:19:12.786Z,9.89
2022-09-28T23:21:39.649Z,9.78
2022-09-28T23:24:06.266Z,9.76
2022-09-28T23:26:33.273Z,9.71
2022-09-28T23:29:00.091Z,9.43
2022-09-28T23:31:29.377Z,9.46
2022-09-28T23:34:00.395Z,9.68
2022-09-28T23:36:27.123Z,9.74
2022-09-28T23:38:53.714Z,8.74
2022-09-28T23:41:20.281Z,9.40
2022-09-28T23:43:46.867Z,9.32
2022-09-28T23:46:16.212Z,9.87
2022-09-28T23:48:46.287Z,9.15
2022-09-28T23:51:12.868Z,9.65
2022-09-28T23:53:39.730Z,9.81
2022-09-28T23:56:06.385Z,9.64
2022-09-28T23:58:32.976Z,9.16
